Tuapse, Russia
Current Conditions -  °F | °C
As of 9:30 AM on Saturday 25 Oct 2014 (Local Time) from URSS Reporting Station
Overcast Overcast  
Wind Chill: 61°   Ceiling: 800
Heat Index: 61°   Visibility: 6mi
Dew Point: 59°   Wind: 4mph
Humidity: 94%   Direction: 290°WNW
Pressure: 30"   Gusts: NA
Location:  44.11°N, 39.07°E
Report Text: URSS 250630Z 29002MPS 9999 BKN008 OVC020CB 16/15 Q1016 NOSIGRMK R02/29002MPS MT OBSC QFE761 06290055 02290055
Loading
Personal Weather Stations






























Interactive Weather Map
Tropical Storm Tracking
New forecast layout! Learn more

10-Day Weather Forecast

Advertisements
Track Severe Weather on mobile